Time;durP1;ratioP1;P1;durP2;ratioP2;P2;SDS_P1;SDS_P2;PMS_P1;PMS_P2;Temp;Humidity;BMP_temperature;BMP_pressure;BME280_temperature;BME280_humidity;BME280_pressure;Samples;Min_cycle;Max_cycle;Signal;HPM_P1;HPM_P2
2022/04/25 00:00:22;;;;;;;0.35;0.35;;;;;;;;;;10435035;28;20045;-71
2022/04/25 00:05:26;;;;;;;0.90;0.40;;;;;;;;;;10418372;28;20146;-72
2022/04/25 00:10:30;;;;;;;0.50;0.50;;;;;;;;;;10419735;28;20056;-72
2022/04/25 00:15:33;;;;;;;0.82;0.60;;;;;;;;;;10427904;28;20537;-72
2022/04/25 00:20:36;;;;;;;0.38;0.38;;;;;;;;;;10421993;28;20640;-72
2022/04/25 00:25:41;;;;;;;0.40;0.30;;;;;;;;;;10406935;28;20152;-70
2022/04/25 00:30:43;;;;;;;1.50;0.30;;;;;;;;;;10419860;28;20048;-73
2022/04/25 00:35:47;;;;;;;0.35;0.30;;;;;;;;;;10442373;28;20041;-73
2022/04/25 00:40:51;;;;;;;0.30;0.28;;;;;;;;;;10436976;28;20045;-73
2022/04/25 00:45:55;;;;;;;0.15;0.15;;;;;;;;;;10429979;28;20042;-73
2022/04/25 00:50:58;;;;;;;0.82;0.50;;;;;;;;;;10426138;28;20438;-71
2022/04/25 00:56:02;;;;;;;0.28;0.28;;;;;;;;;;10426254;28;20483;-73
2022/04/25 01:01:06;;;;;;;0.10;0.10;;;;;;;;;;10447307;28;20420;-72
2022/04/25 01:06:09;;;;;;;0.17;0.13;;;;;;;;;;10413719;28;20103;-72
2022/04/25 01:11:13;;;;;;;0.40;0.32;;;;;;;;;;10412253;28;20033;-72
2022/04/25 01:16:17;;;;;;;0.20;0.20;;;;;;;;;;10429829;28;20163;-71
2022/04/25 01:21:21;;;;;;;0.30;0.30;;;;;;;;;;10416507;28;20054;-71
2022/04/25 01:31:48;;;;;;;0.50;0.50;;;;;;;;;;10427493;28;20033;-73
2022/04/25 01:36:51;;;;;;;0.38;0.38;;;;;;;;;;10414041;28;20524;-71
2022/04/25 01:41:55;;;;;;;0.30;0.30;;;;;;;;;;10417776;28;20037;-71
2022/04/25 01:46:59;;;;;;;0.45;0.32;;;;;;;;;;10424355;28;20037;-72
2022/04/25 01:52:02;;;;;;;0.20;0.20;;;;;;;;;;10426029;28;20086;-73
2022/04/25 01:57:07;;;;;;;0.30;0.30;;;;;;;;;;10431103;28;20065;-73
2022/04/25 02:02:10;;;;;;;1.33;0.50;;;;;;;;;;10428308;28;20419;-72
2022/04/25 02:07:14;;;;;;;0.30;0.30;;;;;;;;;;10433641;28;20497;-72
2022/04/25 02:12:21;;;;;;;0.47;0.47;;;;;;;;;;10425031;28;20048;-71
2022/04/25 02:17:24;;;;;;;0.45;0.35;;;;;;;;;;10433216;28;20045;-73
2022/04/25 02:22:27;;;;;;;0.38;0.20;;;;;;;;;;10423249;28;20033;-72
2022/04/25 02:27:32;;;;;;;0.38;0.28;;;;;;;;;;10441106;28;20037;-72
2022/04/25 02:32:35;;;;;;;0.25;0.22;;;;;;;;;;10421841;28;20041;-71
2022/04/25 02:37:38;;;;;;;0.53;0.50;;;;;;;;;;10434924;28;20042;-72
2022/04/25 02:42:42;;;;;;;0.73;0.40;;;;;;;;;;10445758;28;20636;-71
2022/04/25 02:47:45;;;;;;;0.38;0.28;;;;;;;;;;10421566;28;20053;-72
2022/04/25 02:52:53;;;;;;;1.20;0.70;;;;;;;;;;10414371;28;20037;-71
2022/04/25 02:57:57;;;;;;;0.20;0.20;;;;;;;;;;10446576;28;20540;-72
2022/04/25 03:02:59;;;;;;;;;;;;;;;;;;10423103;28;20056;-72
2022/04/25 03:08:02;;;;;;;1.02;0.50;;;;;;;;;;10432930;28;20543;-72
2022/04/25 03:13:07;;;;;;;0.30;0.30;;;;;;;;;;10434267;28;20041;-72
2022/04/25 03:18:11;;;;;;;0.50;0.50;;;;;;;;;;10424502;28;20139;-71
2022/04/25 03:23:14;;;;;;;0.50;0.40;;;;;;;;;;10431455;28;20041;-71
2022/04/25 03:28:19;;;;;;;0.60;0.30;;;;;;;;;;10412200;28;20049;-71
2022/04/25 03:33:22;;;;;;;2.15;0.90;;;;;;;;;;10419684;28;20068;-72
2022/04/25 03:38:26;;;;;;;0.70;0.40;;;;;;;;;;10410558;28;20044;-72
2022/04/25 03:43:28;;;;;;;;;;;;;;;;;;10425784;28;20075;-72
2022/04/25 03:48:33;;;;;;;0.47;0.25;;;;;;;;;;10435995;28;19947;-72
2022/04/25 03:53:38;;;;;;;0.80;0.52;;;;;;;;;;10421637;28;20147;-72
2022/04/25 03:58:41;;;;;;;0.95;0.57;;;;;;;;;;10437400;28;20055;-72
2022/04/25 04:03:45;;;;;;;0.95;0.50;;;;;;;;;;10430850;28;20029;-73
2022/04/25 04:08:48;;;;;;;1.27;0.90;;;;;;;;;;10416885;28;20045;-71
2022/04/25 04:13:52;;;;;;;1.85;1.00;;;;;;;;;;10429280;28;20106;-71
2022/04/25 04:18:56;;;;;;;1.58;0.98;;;;;;;;;;10435170;28;20107;-72
2022/04/25 04:24:01;;;;;;;3.75;1.10;;;;;;;;;;10416991;28;20114;-72
2022/04/25 04:29:04;;;;;;;1.30;0.65;;;;;;;;;;10433768;28;20037;-72
2022/04/25 04:34:09;;;;;;;1.02;0.50;;;;;;;;;;10440614;28;20044;-71
2022/04/25 04:39:11;;;;;;;3.47;1.60;;;;;;;;;;10466879;22;20056;-71
2022/04/25 04:44:14;;;;;;;2.42;1.45;;;;;;;;;;10481827;28;20071;-70
2022/04/25 04:49:18;;;;;;;3.60;1.70;;;;;;;;;;10460594;28;20044;-71
2022/04/25 04:54:21;;;;;;;3.65;1.55;;;;;;;;;;10480835;28;20052;-72
2022/04/25 04:59:24;;;;;;;4.30;1.75;;;;;;;;;;10477486;28;20517;-71
2022/04/25 05:04:29;;;;;;;3.03;1.38;;;;;;;;;;10477483;28;20037;-72
2022/04/25 05:09:32;;;;;;;3.53;1.70;;;;;;;;;;10477099;28;20102;-71
2022/04/25 05:14:36;;;;;;;2.80;1.33;;;;;;;;;;10462137;28;20052;-72
2022/04/25 05:19:40;;;;;;;5.37;2.17;;;;;;;;;;10462149;28;20043;-71
2022/04/25 05:24:49;;;;;;;4.53;2.45;;;;;;;;;;10457638;28;20103;-72
2022/04/25 05:29:52;;;;;;;4.03;2.13;;;;;;;;;;10432418;28;20132;-71
2022/04/25 05:34:56;;;;;;;4.40;2.00;;;;;;;;;;10452979;28;20348;-71
2022/04/25 05:39:59;;;;;;;3.58;1.65;;;;;;;;;;10454899;28;20396;-71
2022/04/25 05:45:02;;;;;;;6.75;2.70;;;;;;;;;;10476601;28;20451;-71
2022/04/25 05:55:30;;;;;;;4.88;2.55;;;;;;;;;;10475649;28;20067;-71
2022/04/25 06:00:33;;;;;;;6.47;2.92;;;;;;;;;;10480144;28;20041;-73
2022/04/25 06:05:38;;;;;;;8.87;3.47;;;;;;;;;;10467177;28;20071;-72
2022/04/25 06:10:42;;;;;;;9.30;4.47;;;;;;;;;;10469237;28;20044;-72
2022/04/25 06:15:44;;;;;;;10.25;4.88;;;;;;;;;;10485267;28;20060;-72
2022/04/25 06:20:50;;;;;;;10.38;4.53;;;;;;;;;;10478259;28;20072;-72
2022/04/25 06:25:52;;;;;;;13.13;5.95;;;;;;;;;;10487448;28;20031;-70
2022/04/25 06:30:58;;;;;;;12.93;5.80;;;;;;;;;;10469814;28;20036;-71
2022/04/25 06:36:04;;;;;;;13.73;6.50;;;;;;;;;;10480808;28;20048;-72
2022/04/25 06:41:07;;;;;;;12.93;5.20;;;;;;;;;;10480955;28;20539;-72
2022/04/25 06:46:10;;;;;;;16.60;8.10;;;;;;;;;;10463945;28;20078;-70
2022/04/25 06:51:15;;;;;;;16.33;7.90;;;;;;;;;;10481764;28;20045;-72
2022/04/25 06:56:17;;;;;;;12.20;6.20;;;;;;;;;;10465926;28;20047;-71
2022/04/25 07:01:20;;;;;;;14.73;7.32;;;;;;;;;;10468393;28;20598;-71
2022/04/25 07:06:24;;;;;;;12.77;6.17;;;;;;;;;;10483270;28;20045;-72
2022/04/25 07:11:28;;;;;;;14.88;7.15;;;;;;;;;;10466683;28;20051;-72
2022/04/25 07:16:31;;;;;;;14.87;7.60;;;;;;;;;;10466409;28;20086;-72
2022/04/25 07:32:22;;;;;;;11.73;5.88;;;;;;;;;;10480603;28;20490;-71
2022/04/25 07:37:25;;;;;;;14.35;6.70;;;;;;;;;;10459498;28;20051;-70
2022/04/25 07:42:31;;;;;;;12.48;6.18;;;;;;;;;;10479273;28;20041;-71
2022/04/25 07:47:34;;;;;;;12.93;7.03;;;;;;;;;;10480750;28;20098;-71
2022/04/25 07:52:37;;;;;;;14.40;7.67;;;;;;;;;;10481312;28;20029;-72
2022/04/25 07:57:41;;;;;;;14.82;7.15;;;;;;;;;;10479802;28;20041;-73
2022/04/25 08:02:44;;;;;;;16.30;8.07;;;;;;;;;;10476443;28;20048;-72
2022/04/25 08:07:47;;;;;;;12.47;6.93;;;;;;;;;;10475549;28;20523;-73
2022/04/25 08:18:13;;;;;;;19.38;7.53;;;;;;;;;;10478958;28;20063;-72
2022/04/25 08:23:16;;;;;;;16.58;8.38;;;;;;;;;;10461032;28;20067;-73
2022/04/25 08:28:21;;;;;;;14.45;7.88;;;;;;;;;;10474068;28;20115;-73
2022/04/25 08:33:24;;;;;;;16.42;7.75;;;;;;;;;;10477735;28;20059;-73
2022/04/25 08:38:27;;;;;;;15.80;8.82;;;;;;;;;;10476194;28;20048;-73
2022/04/25 08:43:31;;;;;;;14.23;7.67;;;;;;;;;;10475314;28;20105;-73
2022/04/25 08:48:34;;;;;;;12.63;7.65;;;;;;;;;;10479945;28;20044;-72
2022/04/25 08:53:39;;;;;;;13.27;8.30;;;;;;;;;;10470563;28;20029;-72
2022/04/25 08:58:46;;;;;;;13.93;7.75;;;;;;;;;;10478631;28;20415;-71
2022/04/25 09:03:49;;;;;;;10.18;6.85;;;;;;;;;;10471971;28;20085;-72
2022/04/25 09:08:52;;;;;;;;;;;;;;;;;;10477469;28;20037;-73
2022/04/25 09:13:56;;;;;;;11.57;7.28;;;;;;;;;;10475800;28;19924;-74
2022/04/25 09:18:59;;;;;;;14.88;9.32;;;;;;;;;;10452639;28;20036;-72
2022/04/25 09:24:02;;;;;;;;;;;;;;;;;;10477588;28;20036;-73
2022/04/25 09:29:07;;;;;;;14.45;8.98;;;;;;;;;;10454841;28;19981;-77
2022/04/25 09:34:14;;;;;;;17.85;10.85;;;;;;;;;;10486569;28;20029;-74
2022/04/25 09:39:27;;;;;;;15.45;8.85;;;;;;;;;;10480420;28;20070;-74
2022/04/25 09:44:52;;;;;;;14.15;9.00;;;;;;;;;;10468255;28;20071;-73
2022/04/25 09:50:00;;;;;;;11.23;6.82;;;;;;;;;;10464842;28;20527;-73
2022/04/25 09:55:14;;;;;;;12.10;7.40;;;;;;;;;;10481355;28;20025;-73
2022/04/25 10:00:29;;;;;;;14.55;9.65;;;;;;;;;;10468701;28;20079;-73
2022/04/25 10:05:39;;;;;;;17.13;10.57;;;;;;;;;;10481542;28;20481;-74
2022/04/25 10:10:46;;;;;;;12.43;9.30;;;;;;;;;;10483189;28;20044;-74
2022/04/25 10:15:55;;;;;;;10.93;8.67;;;;;;;;;;10484935;28;20562;-74
2022/04/25 10:21:01;;;;;;;9.52;6.90;;;;;;;;;;10483347;28;20547;-74
2022/04/25 10:26:03;;;;;;;7.38;5.57;;;;;;;;;;10485843;28;20036;-74
2022/04/25 10:31:08;;;;;;;17.38;10.88;;;;;;;;;;10483204;28;20144;-76
2022/04/25 10:36:32;;;;;;;16.02;9.93;;;;;;;;;;10479040;28;20032;-75
2022/04/25 10:47:13;;;;;;;12.50;9.10;;;;;;;;;;10433975;28;20044;-74
2022/04/25 10:52:38;;;;;;;10.80;9.05;;;;;;;;;;10419646;28;20394;-73
2022/04/25 10:57:55;;;;;;;9.23;7.70;;;;;;;;;;10440844;28;20045;-73
2022/04/25 11:03:07;;;;;;;10.98;9.20;;;;;;;;;;10419670;28;20084;-73
2022/04/25 11:08:26;;;;;;;11.00;9.30;;;;;;;;;;10422362;28;20121;-73
2022/04/25 11:13:30;;;;;;;12.27;9.30;;;;;;;;;;10424003;28;20133;-73
2022/04/25 11:18:34;;;;;;;8.80;7.28;;;;;;;;;;10439911;28;20040;-74
2022/04/25 11:23:47;;;;;;;9.40;7.85;;;;;;;;;;10441730;28;20029;-73
2022/04/25 11:29:08;;;;;;;9.35;8.45;;;;;;;;;;10418124;28;20056;-74
2022/04/25 11:34:11;;;;;;;;;;;;;;;;;;10439015;28;20029;-73
2022/04/25 11:44:38;;;;;;;8.05;5.78;;;;;;;;;;10422928;28;20037;-73
2022/04/25 11:49:41;;;;;;;10.18;7.00;;;;;;;;;;10441227;28;20051;-73
2022/04/25 11:54:46;;;;;;;10.38;8.05;;;;;;;;;;10420600;28;20048;-73
2022/04/25 11:59:48;;;;;;;10.95;9.77;;;;;;;;;;10413539;28;20727;-72
2022/04/25 12:04:51;;;;;;;10.48;9.05;;;;;;;;;;10414794;28;20482;-73
2022/04/25 12:15:35;;;;;;;11.75;9.05;;;;;;;;;;10433658;28;20045;-73
2022/04/25 12:20:39;;;;;;;9.38;7.47;;;;;;;;;;10436033;28;20450;-71
2022/04/25 12:25:44;;;;;;;11.77;8.30;;;;;;;;;;10436183;28;20033;-72
2022/04/25 12:30:48;;;;;;;10.35;8.82;;;;;;;;;;10422967;28;20055;-72
2022/04/25 12:36:06;;;;;;;10.73;7.78;;;;;;;;;;10440499;28;20204;-73
2022/04/25 12:41:11;;;;;;;10.25;8.27;;;;;;;;;;10417323;28;20057;-73
2022/04/25 12:46:14;;;;;;;10.68;7.00;;;;;;;;;;10439939;28;20603;-73
2022/04/25 12:51:26;;;;;;;8.70;6.93;;;;;;;;;;10417828;28;20041;-74
2022/04/25 12:56:32;;;;;;;9.65;7.53;;;;;;;;;;10438308;28;20520;-73
2022/04/25 13:01:36;;;;;;;9.25;7.22;;;;;;;;;;10430180;28;20048;-73
2022/04/25 13:06:39;;;;;;;10.93;7.78;;;;;;;;;;10420524;28;20392;-71
2022/04/25 13:11:44;;;;;;;8.13;6.50;;;;;;;;;;10435799;28;20037;-72
2022/04/25 13:16:47;;;;;;;11.10;8.07;;;;;;;;;;10419238;28;20094;-73
2022/04/25 13:21:50;;;;;;;12.50;8.55;;;;;;;;;;10437057;28;20036;-73
2022/04/25 13:26:55;;;;;;;12.93;8.20;;;;;;;;;;10427418;28;20138;-75
2022/04/25 13:31:58;;;;;;;10.98;7.25;;;;;;;;;;10435470;28;20056;-73
2022/04/25 13:37:02;;;;;;;10.82;7.35;;;;;;;;;;10426947;28;20385;-71
2022/04/25 13:42:07;;;;;;;10.52;6.60;;;;;;;;;;10410754;28;20072;-71
2022/04/25 13:47:10;;;;;;;11.68;8.77;;;;;;;;;;10435465;28;20136;-69
2022/04/25 13:52:13;;;;;;;10.38;7.20;;;;;;;;;;10435612;28;20041;-73
2022/04/25 13:57:17;;;;;;;10.40;7.40;;;;;;;;;;10430509;28;20135;-73
2022/04/25 14:07:41;;;;;;;10.40;6.78;;;;;;;;;;10429550;28;20040;-73
2022/04/25 14:12:45;;;;;;;11.80;7.47;;;;;;;;;;10433844;28;20625;-74
2022/04/25 14:17:48;;;;;;;11.50;7.55;;;;;;;;;;10443194;28;20040;-71
2022/04/25 14:22:53;;;;;;;;;;;;;;;;;;10441026;28;20037;-71
2022/04/25 14:27:58;;;;;;;12.55;7.90;;;;;;;;;;10420802;28;19931;-73
2022/04/25 14:33:01;;;;;;;12.48;7.60;;;;;;;;;;10431590;28;20041;-73
2022/04/25 14:38:04;;;;;;;13.05;7.75;;;;;;;;;;10436982;28;20032;-73
2022/04/25 14:43:08;;;;;;;12.52;7.85;;;;;;;;;;10425336;28;20067;-74
2022/04/25 14:48:11;;;;;;;14.50;8.13;;;;;;;;;;10425022;28;20041;-73
2022/04/25 14:58:36;;;;;;;13.75;7.60;;;;;;;;;;10421140;28;20523;-73
2022/04/25 15:03:39;;;;;;;11.30;7.10;;;;;;;;;;10425752;28;20055;-71
2022/04/25 15:08:42;;;;;;;10.98;6.72;;;;;;;;;;10438683;28;20044;-73
2022/04/25 15:13:46;;;;;;;10.38;6.32;;;;;;;;;;10432168;28;20713;-73
2022/04/25 15:18:49;;;;;;;8.65;5.70;;;;;;;;;;10434907;28;20033;-73
2022/04/25 15:23:52;;;;;;;11.20;6.30;;;;;;;;;;10437675;28;20513;-73
2022/04/25 15:28:56;;;;;;;10.23;5.90;;;;;;;;;;10441306;28;20037;-72
2022/04/25 15:33:59;;;;;;;10.18;6.07;;;;;;;;;;10431029;28;20025;-73
2022/04/25 15:39:02;;;;;;;10.05;6.07;;;;;;;;;;10432926;28;20037;-70
2022/04/25 15:44:05;;;;;;;;;;;;;;;;;;10421648;28;20457;-72
2022/04/25 15:49:10;;;;;;;15.23;7.75;;;;;;;;;;10437063;28;20006;-73
2022/04/25 15:59:34;;;;;;;14.57;8.63;;;;;;;;;;10436827;28;20089;-74
2022/04/25 16:04:38;;;;;;;12.47;7.37;;;;;;;;;;10439333;28;20064;-74
2022/04/25 16:09:41;;;;;;;12.38;5.45;;;;;;;;;;10435613;28;20409;-74
2022/04/25 16:14:44;;;;;;;21.25;9.27;;;;;;;;;;10437964;28;20028;-74
2022/04/25 16:19:48;;;;;;;31.43;15.53;;;;;;;;;;10434958;28;20056;-75
2022/04/25 16:24:51;;;;;;;17.90;7.97;;;;;;;;;;10409911;28;20572;-74
2022/04/25 16:29:54;;;;;;;14.57;7.72;;;;;;;;;;10430558;28;20029;-74
2022/04/25 16:34:58;;;;;;;15.67;7.40;;;;;;;;;;10412874;28;20115;-75
2022/04/25 16:40:01;;;;;;;16.10;8.27;;;;;;;;;;10435175;28;20063;-74
2022/04/25 16:45:05;;;;;;;17.30;7.80;;;;;;;;;;10436173;28;20056;-74
2022/04/25 16:50:09;;;;;;;17.80;9.73;;;;;;;;;;10419735;28;20037;-74
2022/04/25 16:55:13;;;;;;;17.23;8.05;;;;;;;;;;10435627;28;20119;-76
2022/04/25 17:00:17;;;;;;;12.13;7.25;;;;;;;;;;10433842;28;20048;-77
2022/04/25 17:05:21;;;;;;;15.68;8.10;;;;;;;;;;10435921;28;20037;-77
2022/04/25 17:10:24;;;;;;;14.20;7.82;;;;;;;;;;10436605;28;20041;-75
2022/04/25 17:15:27;;;;;;;14.77;8.32;;;;;;;;;;10434247;28;20072;-78
2022/04/25 17:20:31;;;;;;;14.77;8.88;;;;;;;;;;10430871;28;20060;-76
2022/04/25 17:25:37;;;;;;;17.83;8.95;;;;;;;;;;10429706;28;20029;-76
2022/04/25 17:30:40;;;;;;;14.57;8.05;;;;;;;;;;10435308;28;20069;-76
2022/04/25 17:35:46;;;;;;;16.40;8.37;;;;;;;;;;10421865;28;20134;-76
